Time;durP1;ratioP1;P1;durP2;ratioP2;P2;SDS_P1;SDS_P2;PMS_P1;PMS_P2;Temp;Humidity;BMP_temperature;BMP_pressure;BME280_temperature;BME280_humidity;BME280_pressure;Samples;Min_cycle;Max_cycle;Signal;HPM_P1;HPM_P2
2023/02/21 02:14:29;;;;;;;;;;;21.20;56.00;;;;;;1536995;76;698;-59
2023/02/21 02:16:48;;;;;;;;;;;21.20;56.10;;;;;;1538893;76;779;-59
2023/02/21 02:19:07;;;;;;;;;;;21.10;56.00;;;;;;1541125;76;712;-59
2023/02/21 02:21:27;;;;;;;;;;;21.10;56.20;;;;;;1539965;76;1467;-59
2023/02/21 02:23:47;;;;;;;;;;;21.00;56.30;;;;;;1536029;76;679;-58
2023/02/21 02:25:53;;;;;;;;;;;21.00;56.30;;;;;;1536084;76;701;-59
2023/02/21 02:27:56;;;;;;;;;;;21.00;56.30;;;;;;1532308;76;1840;-59
2023/02/21 02:30:00;;;;;;;;;;;21.00;56.20;;;;;;1544650;76;1530;-59
2023/02/21 02:32:16;;;;;;;;;;;21.10;56.50;;;;;;1541701;76;2132;-59
2023/02/21 02:34:36;;;;;;;;;;;21.00;56.40;;;;;;1540110;76;1542;-58
2023/02/21 02:36:42;;;;;;;;;;;21.00;56.40;;;;;;1534320;76;811;-59
2023/02/21 02:38:48;;;;;;;;;;;21.00;56.30;;;;;;1538557;76;672;-59
2023/02/21 02:40:51;;;;;;;;;;;21.00;56.40;;;;;;1544352;76;1758;-60
2023/02/21 02:42:55;;;;;;;;;;;21.10;56.40;;;;;;1535536;76;717;-59
2023/02/21 02:44:58;;;;;;;;;;;21.00;56.30;;;;;;1541201;76;1947;-59
2023/02/21 02:47:01;;;;;;;;;;;21.00;56.70;;;;;;1542481;76;668;-59
2023/02/21 02:49:04;;;;;;;;;;;21.10;56.30;;;;;;1544256;76;1594;-59
2023/02/21 02:51:07;;;;;;;;;;;21.10;56.10;;;;;;1544291;76;1079;-59
2023/02/21 02:53:09;;;;;;;;;;;21.20;56.00;;;;;;1537578;76;586;-59
2023/02/21 02:55:21;;;;;;;;;;;21.20;55.80;;;;;;1537637;76;754;-61
2023/02/21 02:57:23;;;;;;;;;;;21.30;55.80;;;;;;1534782;76;826;-59
2023/02/21 02:59:27;;;;;;;;;;;21.30;55.80;;;;;;1546524;76;663;-59
2023/02/21 03:01:37;;;;;;;;;;;21.30;55.70;;;;;;1532968;76;1118;-59
2023/02/21 03:03:43;;;;;;;;;;;21.30;55.70;;;;;;1535188;76;692;-60
2023/02/21 03:05:47;;;;;;;;;;;21.30;55.80;;;;;;1540079;76;2066;-59
2023/02/21 03:07:50;;;;;;;;;;;21.30;55.80;;;;;;1545758;76;2002;-59
2023/02/21 03:10:12;;;;;;;;;;;21.20;55.60;;;;;;1535711;76;1730;-59
2023/02/21 03:12:25;;;;;;;;;;;21.30;55.70;;;;;;1538773;76;716;-59
2023/02/21 03:14:28;;;;;;;;;;;21.30;55.70;;;;;;1543482;76;1869;-61
2023/02/21 03:16:34;;;;;;;;;;;21.20;55.60;;;;;;1540675;76;1549;-59
2023/02/21 03:18:38;;;;;;;;;;;21.30;55.70;;;;;;1540696;76;720;-60
2023/02/21 03:20:40;;;;;;;;;;;21.30;55.80;;;;;;1534298;76;1146;-59
2023/02/21 03:22:43;;;;;;;;;;;21.20;55.70;;;;;;1532817;76;703;-59
2023/02/21 03:24:45;;;;;;;;;;;21.30;55.80;;;;;;1541406;76;1935;-61
2023/02/21 03:26:47;;;;;;;;;;;21.30;55.80;;;;;;1537755;76;961;-59
2023/02/21 03:28:49;;;;;;;;;;;21.30;55.80;;;;;;1540514;76;679;-61
2023/02/21 03:30:52;;;;;;;;;;;21.30;55.80;;;;;;1547868;76;1547;-60
2023/02/21 03:32:54;;;;;;;;;;;21.30;55.80;;;;;;1539776;76;743;-58
2023/02/21 03:34:56;;;;;;;;;;;21.30;55.90;;;;;;1542818;76;716;-60
2023/02/21 03:36:57;;;;;;;;;;;21.20;55.70;;;;;;1541006;76;749;-59
2023/02/21 03:38:59;;;;;;;;;;;21.30;55.80;;;;;;1544490;76;711;-59
2023/02/21 03:41:01;;;;;;;;;;;21.30;55.80;;;;;;1541319;76;1186;-61
2023/02/21 03:43:06;;;;;;;;;;;21.20;55.70;;;;;;1543593;76;733;-59
2023/02/21 03:45:07;;;;;;;;;;;21.30;55.90;;;;;;1532681;76;1940;-60
2023/02/21 03:47:09;;;;;;;;;;;21.20;55.70;;;;;;1543939;76;675;-60
2023/02/21 03:49:11;;;;;;;;;;;21.30;55.80;;;;;;1546311;76;792;-59
2023/02/21 03:51:13;;;;;;;;;;;21.20;55.70;;;;;;1535292;76;1173;-58
2023/02/21 03:53:15;;;;;;;;;;;21.30;56.00;;;;;;1537178;76;726;-61
2023/02/21 03:55:17;;;;;;;;;;;21.20;55.80;;;;;;1536608;76;700;-59
2023/02/21 03:57:19;;;;;;;;;;;21.20;56.00;;;;;;1535452;76;670;-60
2023/02/21 03:59:20;;;;;;;;;;;21.20;56.10;;;;;;1533489;76;1506;-58
2023/02/21 04:01:22;;;;;;;;;;;21.20;56.10;;;;;;1535446;76;1106;-61
2023/02/21 04:03:24;;;;;;;;;;;21.20;56.10;;;;;;1534188;76;651;-59
2023/02/21 04:05:26;;;;;;;;;;;21.20;56.10;;;;;;1547378;76;1947;-59
2023/02/21 04:07:28;;;;;;;;;;;21.20;56.00;;;;;;1533225;76;662;-61
2023/02/21 04:09:30;;;;;;;;;;;21.20;56.10;;;;;;1546162;76;790;-61
2023/02/21 04:11:32;;;;;;;;;;;21.20;56.00;;;;;;1543175;76;1140;-61
2023/02/21 04:13:34;;;;;;;;;;;21.20;56.10;;;;;;1538450;76;1627;-60
2023/02/21 04:15:35;;;;;;;;;;;21.30;56.20;;;;;;1547826;76;753;-60
2023/02/21 04:17:37;;;;;;;;;;;21.20;56.00;;;;;;1537950;76;726;-60
2023/02/21 04:19:39;;;;;;;;;;;21.20;56.10;;;;;;1544011;76;712;-61
2023/02/21 04:21:41;;;;;;;;;;;21.20;56.10;;;;;;1538639;76;1128;-61
2023/02/21 04:23:43;;;;;;;;;;;21.20;56.20;;;;;;1532827;76;690;-61
2023/02/21 04:25:45;;;;;;;;;;;21.20;56.20;;;;;;1536521;76;1929;-60
2023/02/21 04:27:47;;;;;;;;;;;21.20;56.10;;;;;;1538704;76;1578;-61
2023/02/21 04:29:48;;;;;;;;;;;21.20;56.10;;;;;;1536743;76;561;-61
2023/02/21 04:31:51;;;;;;;;;;;21.30;56.30;;;;;;1534404;76;1079;-60
2023/02/21 04:33:53;;;;;;;;;;;21.10;56.20;;;;;;1534825;76;633;-61
2023/02/21 04:35:54;;;;;;;;;;;21.20;56.20;;;;;;1538895;76;684;-61
2023/02/21 04:37:56;;;;;;;;;;;21.20;56.20;;;;;;1537818;76;760;-61
2023/02/21 04:39:58;;;;;;;;;;;21.20;56.20;;;;;;1538416;76;1544;-58
2023/02/21 04:42:00;;;;;;;;;;;21.10;56.20;;;;;;1545796;76;1203;-59
2023/02/21 04:44:02;;;;;;;;;;;21.30;56.30;;;;;;1538923;76;685;-59
2023/02/21 04:46:04;;;;;;;;;;;21.20;56.20;;;;;;1537839;76;1944;-59
2023/02/21 04:48:06;;;;;;;;;;;21.10;56.20;;;;;;1539166;76;703;-59
2023/02/21 04:50:08;;;;;;;;;;;21.20;56.10;;;;;;1536119;76;1146;-60
2023/02/21 04:52:10;;;;;;;;;;;21.20;56.10;;;;;;1540377;76;677;-59
2023/02/21 04:54:12;;;;;;;;;;;21.20;56.00;;;;;;1539218;76;1546;-60
2023/02/21 04:56:14;;;;;;;;;;;21.20;56.00;;;;;;1541433;76;689;-59
2023/02/21 04:58:16;;;;;;;;;;;21.20;56.00;;;;;;1536550;76;738;-58
2023/02/21 05:00:18;;;;;;;;;;;21.20;56.00;;;;;;1532172;76;1119;-59
2023/02/21 05:02:20;;;;;;;;;;;21.20;56.00;;;;;;1532894;76;733;-61
2023/02/21 05:04:22;;;;;;;;;;;21.30;56.10;;;;;;1539984;76;696;-61
2023/02/21 05:06:25;;;;;;;;;;;21.20;56.00;;;;;;1533875;76;2039;-61
2023/02/21 05:08:26;;;;;;;;;;;21.20;56.00;;;;;;1535624;76;1523;-61
2023/02/21 05:10:28;;;;;;;;;;;21.20;56.00;;;;;;1535334;76;1138;-60
2023/02/21 05:12:31;;;;;;;;;;;21.20;56.00;;;;;;1549042;76;703;-60
2023/02/21 05:14:32;;;;;;;;;;;21.30;56.20;;;;;;1540534;76;772;-60
2023/02/21 05:16:34;;;;;;;;;;;21.20;56.10;;;;;;1542640;76;724;-60
2023/02/21 05:18:37;;;;;;;;;;;21.20;56.10;;;;;;1538685;76;690;-59
2023/02/21 05:20:39;;;;;;;;;;;21.20;56.20;;;;;;1544012;76;1135;-63
2023/02/21 05:22:41;;;;;;;;;;;21.10;56.30;;;;;;1541282;76;1508;-60
2023/02/21 05:24:43;;;;;;;;;;;21.20;56.40;;;;;;1540956;76;1938;-59
2023/02/21 05:26:45;;;;;;;;;;;21.20;56.30;;;;;;1533840;76;674;-59
2023/02/21 05:28:47;;;;;;;;;;;21.10;56.50;;;;;;1537561;76;732;-59
2023/02/21 05:30:48;;;;;;;;;;;21.20;56.40;;;;;;1541757;76;1142;-59
2023/02/21 05:32:50;;;;;;;;;;;21.20;56.50;;;;;;1554166;76;690;-60
2023/02/21 05:34:52;;;;;;;;;;;21.10;56.50;;;;;;1546640;76;657;-58
2023/02/21 05:36:54;;;;;;;;;;;21.10;56.70;;;;;;1541964;76;1323;-59
2023/02/21 05:38:56;;;;;;;;;;;21.10;56.90;;;;;;1539494;76;753;-59
2023/02/21 05:40:58;;;;;;;;;;;21.00;58.50;;;;;;1540772;76;1165;-58
2023/02/21 05:43:00;;;;;;;;;;;21.00;57.60;;;;;;1543307;76;741;-60
2023/02/21 05:45:05;;;;;;;;;;;21.10;57.40;;;;;;1537639;76;1952;-58
2023/02/21 05:47:06;;;;;;;;;;;21.00;57.70;;;;;;1542413;76;1518;-58
2023/02/21 05:49:08;;;;;;;;;;;21.00;57.60;;;;;;1540235;76;728;-59
2023/02/21 05:51:09;;;;;;;;;;;21.00;57.50;;;;;;1544198;76;1585;-58
2023/02/21 05:53:11;;;;;;;;;;;21.10;57.30;;;;;;1537997;76;710;-57
2023/02/21 05:55:13;;;;;;;;;;;21.20;57.30;;;;;;1542846;76;681;-58
2023/02/21 05:57:15;;;;;;;;;;;21.20;57.20;;;;;;1541370;76;676;-58
2023/02/21 05:59:18;;;;;;;;;;;21.20;57.10;;;;;;1529528;76;749;-57
2023/02/21 06:01:20;;;;;;;;;;;21.20;57.30;;;;;;1539458;76;1148;-58
2023/02/21 06:03:22;;;;;;;;;;;21.20;57.80;;;;;;1540835;76;737;-58
2023/02/21 06:05:24;;;;;;;;;;;21.10;58.40;;;;;;1542833;76;1933;-59
2023/02/21 06:07:26;;;;;;;;;;;21.00;58.70;;;;;;1539019;76;812;-64
2023/02/21 06:09:29;;;;;;;;;;;21.00;58.90;;;;;;1538897;76;824;-61
2023/02/21 06:11:36;;;;;;;;;;;21.00;58.60;;;;;;1547571;76;1235;-62
2023/02/21 06:13:38;;;;;;;;;;;21.00;58.20;;;;;;1551070;76;743;-59
2023/02/21 06:15:40;;;;;;;;;;;21.10;57.50;;;;;;1540026;76;723;-60
2023/02/21 06:17:43;;;;;;;;;;;21.10;57.40;;;;;;1539490;76;753;-61
2023/02/21 06:19:45;;;;;;;;;;;21.20;57.30;;;;;;1532684;76;1629;-61
2023/02/21 06:21:47;;;;;;;;;;;21.10;57.60;;;;;;1549120;76;1205;-61
2023/02/21 06:23:49;;;;;;;;;;;21.00;58.30;;;;;;1547349;76;704;-61
2023/02/21 06:25:50;;;;;;;;;;;21.00;58.60;;;;;;1536168;76;1931;-60
2023/02/21 06:27:52;;;;;;;;;;;21.10;58.90;;;;;;1536177;76;680;-60
2023/02/21 06:29:54;;;;;;;;;;;21.00;58.70;;;;;;1534850;76;765;-61
2023/02/21 06:31:57;;;;;;;;;;;21.00;58.60;;;;;;1535603;76;1125;-62
2023/02/21 06:33:59;;;;;;;;;;;21.00;58.60;;;;;;1536603;76;1543;-60
2023/02/21 06:36:07;;;;;;;;;;;21.10;58.60;;;;;;1537605;76;702;-60
2023/02/21 06:38:09;;;;;;;;;;;21.10;57.80;;;;;;1546463;76;755;-59
2023/02/21 06:40:11;;;;;;;;;;;21.10;57.70;;;;;;1534272;76;1158;-60
2023/02/21 06:42:13;;;;;;;;;;;21.20;58.30;;;;;;1539454;76;707;-60
2023/02/21 06:44:15;;;;;;;;;;;21.20;57.60;;;;;;1535833;76;721;-60
2023/02/21 06:46:18;;;;;;;;;;;21.20;57.60;;;;;;1542514;76;1917;-61
2023/02/21 06:48:20;;;;;;;;;;;21.20;57.70;;;;;;1545503;76;1446;-60
2023/02/21 06:50:22;;;;;;;;;;;21.10;57.80;;;;;;1536342;76;1122;-60
2023/02/21 06:52:23;;;;;;;;;;;21.20;58.30;;;;;;1546844;76;690;-61
2023/02/21 06:54:25;;;;;;;;;;;21.10;58.60;;;;;;1534454;76;736;-60
2023/02/21 06:56:28;;;;;;;;;;;21.10;58.50;;;;;;1535901;76;690;-59
2023/02/21 06:58:29;;;;;;;;;;;21.30;58.50;;;;;;1543617;76;686;-62
2023/02/21 07:00:31;;;;;;;;;;;21.30;58.00;;;;;;1539338;76;1134;-61
2023/02/21 07:02:33;;;;;;;;;;;21.20;58.50;;;;;;1549947;76;1521;-60
2023/02/21 07:04:35;;;;;;;;;;;21.20;57.80;;;;;;1537522;76;694;-61
2023/02/21 07:06:37;;;;;;;;;;;21.30;57.80;;;;;;1538526;76;1951;-61
2023/02/21 07:08:39;;;;;;;;;;;21.20;57.80;;;;;;1535251;76;706;-61
2023/02/21 07:10:41;;;;;;;;;;;21.20;57.80;;;;;;1535924;76;1151;-62
2023/02/21 07:12:42;;;;;;;;;;;21.20;57.80;;;;;;1541676;76;689;-61
2023/02/21 07:14:44;;;;;;;;;;;21.40;57.60;;;;;;1541812;76;1335;-61
2023/02/21 07:16:46;;;;;;;;;;;21.40;57.30;;;;;;1540837;76;1541;-61
2023/02/21 07:18:48;;;;;;;;;;;21.40;57.10;;;;;;1538532;76;1531;-61
2023/02/21 07:20:50;;;;;;;;;;;21.40;56.80;;;;;;1543529;76;1541;-61
2023/02/21 07:22:52;;;;;;;;;;;21.40;56.60;;;;;;1542760;76;1174;-61
2023/02/21 07:24:54;;;;;;;;;;;21.40;56.40;;;;;;1544582;76;1521;-61
2023/02/21 07:26:56;;;;;;;;;;;21.40;56.40;;;;;;1545172;76;1932;-60
2023/02/21 07:28:58;;;;;;;;;;;21.40;56.30;;;;;;1542521;76;1479;-61
2023/02/21 07:31:00;;;;;;;;;;;21.40;56.30;;;;;;1542199;76;1111;-62
2023/02/21 07:33:02;;;;;;;;;;;21.40;56.20;;;;;;1541307;76;1107;-61
2023/02/21 07:35:04;;;;;;;;;;;21.40;56.20;;;;;;1550236;76;1050;-60
2023/02/21 07:37:06;;;;;;;;;;;21.40;56.10;;;;;;1542600;76;1387;-61
2023/02/21 07:39:08;;;;;;;;;;;21.40;56.10;;;;;;1540486;76;1326;-60
2023/02/21 07:41:10;;;;;;;;;;;21.30;56.00;;;;;;1543707;76;1223;-61
2023/02/21 07:43:12;;;;;;;;;;;21.30;56.00;;;;;;1537102;76;1555;-61
2023/02/21 07:45:14;;;;;;;;;;;21.30;56.00;;;;;;1543902;76;1428;-61
2023/02/21 07:47:16;;;;;;;;;;;21.30;56.00;;;;;;1543215;76;1948;-61
2023/02/21 07:49:17;;;;;;;;;;;21.30;56.00;;;;;;1541222;76;1507;-61
2023/02/21 07:51:19;;;;;;;;;;;21.30;56.00;;;;;;1544062;76;1576;-61
2023/02/21 07:53:21;;;;;;;;;;;21.40;56.00;;;;;;1536100;76;1501;-61
2023/02/21 07:55:23;;;;;;;;;;;21.30;56.00;;;;;;1541649;76;1308;-63
2023/02/21 07:57:25;;;;;;;;;;;21.30;56.00;;;;;;1541501;76;1540;-61
2023/02/21 07:59:27;;;;;;;;;;;21.30;56.00;;;;;;1538389;76;1510;-60
2023/02/21 08:01:29;;;;;;;;;;;21.40;56.00;;;;;;1546229;76;1503;-61
2023/02/21 08:03:31;;;;;;;;;;;21.30;56.00;;;;;;1547335;76;1489;-62
2023/02/21 08:05:33;;;;;;;;;;;21.40;56.00;;;;;;1540689;76;1300;-60
2023/02/21 08:07:35;;;;;;;;;;;21.30;56.00;;;;;;1537668;76;1683;-60
2023/02/21 08:09:37;;;;;;;;;;;21.30;56.00;;;;;;1535946;76;1505;-61
2023/02/21 08:11:39;;;;;;;;;;;21.40;56.00;;;;;;1538645;76;1504;-61
2023/02/21 08:13:41;;;;;;;;;;;21.30;56.00;;;;;;1544258;76;1537;-61
2023/02/21 08:15:43;;;;;;;;;;;21.30;56.00;;;;;;1548143;76;1349;-61
2023/02/21 08:17:46;;;;;;;;;;;21.30;56.10;;;;;;1547818;76;1358;-61
2023/02/21 08:19:48;;;;;;;;;;;21.40;56.00;;;;;;1545258;76;1543;-61
2023/02/21 08:21:50;;;;;;;;;;;21.30;56.10;;;;;;1541398;76;1167;-61
2023/02/21 08:23:53;;;;;;;;;;;21.30;56.20;;;;;;1540223;76;1148;-61
2023/02/21 08:25:55;;;;;;;;;;;21.40;56.30;;;;;;1541113;76;1920;-61
2023/02/21 08:27:57;;;;;;;;;;;21.30;56.30;;;;;;1539503;76;1127;-60
2023/02/21 08:29:59;;;;;;;;;;;21.30;56.30;;;;;;1540301;76;1357;-61
2023/02/21 08:32:01;;;;;;;;;;;21.30;56.50;;;;;;1539825;76;1606;-62
2023/02/21 08:34:03;;;;;;;;;;;21.40;56.70;;;;;;1535514;76;1271;-61
2023/02/21 08:36:05;;;;;;;;;;;21.30;57.00;;;;;;1540754;76;1268;-60
2023/02/21 08:38:09;;;;;;;;;;;21.30;57.30;;;;;;1544616;76;1299;-60
2023/02/21 08:40:11;;;;;;;;;;;21.20;57.80;;;;;;1544682;76;1497;-60
2023/02/21 08:42:13;;;;;;;;;;;21.30;58.60;;;;;;1537477;76;996;-61
2023/02/21 08:44:15;;;;;;;;;;;21.40;58.90;;;;;;1541767;76;1214;-61
2023/02/21 08:46:17;;;;;;;;;;;21.30;59.40;;;;;;1544014;76;1923;-61
2023/02/21 08:48:19;;;;;;;;;;;21.50;59.70;;;;;;1534634;76;1362;-60
2023/02/21 08:50:21;;;;;;;;;;;21.40;60.10;;;;;;1541777;76;1400;-60
2023/02/21 08:52:23;;;;;;;;;;;21.40;60.30;;;;;;1550575;76;1541;-61
2023/02/21 08:54:25;;;;;;;;;;;21.40;60.20;;;;;;1544427;76;1566;-61
2023/02/21 08:56:27;;;;;;;;;;;21.50;60.30;;;;;;1539378;76;1111;-61
2023/02/21 08:58:29;;;;;;;;;;;21.50;60.30;;;;;;1539324;76;1199;-61
2023/02/21 09:00:31;;;;;;;;;;;21.60;60.30;;;;;;1539720;76;1351;-61
2023/02/21 09:02:32;;;;;;;;;;;21.50;60.30;;;;;;1541482;76;1313;-60
2023/02/21 09:04:35;;;;;;;;;;;21.60;60.50;;;;;;1542230;76;1063;-61
2023/02/21 09:06:37;;;;;;;;;;;21.60;60.50;;;;;;1540477;76;1940;-61
2023/02/21 09:08:39;;;;;;;;;;;21.60;60.10;;;;;;1542897;76;1524;-61
2023/02/21 09:10:46;;;;;;;;;;;21.60;60.00;;;;;;1544190;76;1112;-61
2023/02/21 09:12:45;;;;;;;;;;;21.70;60.00;;;;;;1539500;76;1629;-63
2023/02/21 09:14:47;;;;;;;;;;;21.70;59.90;;;;;;1545615;76;1099;-61
2023/02/21 09:16:49;;;;;;;;;;;21.60;59.70;;;;;;1543246;76;1450;-64
2023/02/21 09:18:57;;;;;;;;;;;21.80;59.30;;;;;;1544189;76;1117;-61
2023/02/21 09:20:59;;;;;;;;;;;21.80;58.60;;;;;;1538458;76;1461;-62
2023/02/21 09:23:01;;;;;;;;;;;21.90;57.70;;;;;;1541707;76;1686;-62
2023/02/21 09:25:03;;;;;;;;;;;21.90;57.60;;;;;;1540073;76;1379;-62
2023/02/21 09:27:05;;;;;;;;;;;22.00;57.60;;;;;;1542040;76;1920;-62
2023/02/21 09:29:07;;;;;;;;;;;21.90;57.60;;;;;;1541172;76;1332;-71
2023/02/21 09:31:09;;;;;;;;;;;22.00;57.60;;;;;;1533315;76;1241;-62
2023/02/21 09:33:11;;;;;;;;;;;22.00;57.60;;;;;;1537444;76;1145;-61
2023/02/21 09:35:13;;;;;;;;;;;22.00;57.60;;;;;;1542334;76;1110;-61
2023/02/21 09:37:14;;;;;;;;;;;22.00;57.50;;;;;;1539783;76;1479;-61
2023/02/21 09:39:19;;;;;;;;;;;22.00;57.30;;;;;;1537862;76;1291;-62
2023/02/21 09:41:21;;;;;;;;;;;22.10;57.40;;;;;;1540191;76;1352;-61
2023/02/21 09:43:40;;;;;;;;;;;22.10;57.30;;;;;;1543944;76;1539;-60
2023/02/21 09:45:42;;;;;;;;;;;22.10;57.30;;;;;;1543011;76;1490;-61
2023/02/21 09:47:44;;;;;;;;;;;22.10;57.30;;;;;;1538771;76;1933;-62
2023/02/21 09:49:46;;;;;;;;;;;22.10;56.80;;;;;;1541611;76;1466;-62
2023/02/21 09:51:49;;;;;;;;;;;22.10;57.10;;;;;;1545634;76;1189;-62
2023/02/21 09:53:51;;;;;;;;;;;22.10;57.10;;;;;;1545295;76;1091;-62
2023/02/21 09:55:53;;;;;;;;;;;22.10;56.80;;;;;;1542358;76;1067;-62
2023/02/21 09:57:55;;;;;;;;;;;22.10;56.80;;;;;;1541279;76;1504;-62
2023/02/21 09:59:58;;;;;;;;;;;22.10;56.80;;;;;;1546068;76;1134;-61
2023/02/21 10:02:14;;;;;;;;;;;22.10;56.70;;;;;;1541858;76;1515;-61
2023/02/21 10:04:35;;;;;;;;;;;22.10;56.70;;;;;;1540303;76;1478;-62
2023/02/21 10:06:41;;;;;;;;;;;22.10;56.60;;;;;;1538189;76;1949;-61
2023/02/21 10:08:44;;;;;;;;;;;22.10;56.60;;;;;;1538009;76;1898;-61
2023/02/21 10:10:47;;;;;;;;;;;22.10;56.40;;;;;;1543915;76;1134;-62
2023/02/21 10:12:56;;;;;;;;;;;22.10;56.30;;;;;;1541174;76;1128;-61
2023/02/21 10:15:16;;;;;;;;;;;22.10;56.20;;;;;;1538483;76;1302;-62
2023/02/21 10:17:22;;;;;;;;;;;22.10;56.10;;;;;;1537415;76;1105;-61
2023/02/21 10:19:31;;;;;;;;;;;22.10;56.00;;;;;;1535331;76;1762;-61
2023/02/21 10:21:41;;;;;;;;;;;22.10;55.90;;;;;;1540726;76;1183;-62
2023/02/21 10:23:49;;;;;;;;;;;22.10;55.80;;;;;;1536831;76;2013;-61
2023/02/21 10:25:48;;;;;;;;;;;22.10;55.80;;;;;;1536973;76;2100;-61
2023/02/21 10:27:50;;;;;;;;;;;22.10;55.70;;;;;;1550139;76;1946;-62
2023/02/21 10:30:04;;;;;;;;;;;22.10;55.70;;;;;;1540505;76;1119;-62
2023/02/21 10:32:06;;;;;;;;;;;22.10;55.60;;;;;;1543946;76;1462;-62
2023/02/21 10:34:09;;;;;;;;;;;22.20;55.60;;;;;;1541225;76;1524;-61
2023/02/21 10:36:12;;;;;;;;;;;22.10;55.50;;;;;;1547953;76;1122;-61
2023/02/21 10:38:15;;;;;;;;;;;22.10;55.50;;;;;;1547324;76;1338;-61
2023/02/21 10:40:33;;;;;;;;;;;22.10;55.50;;;;;;1539832;75;1359;-63
2023/02/21 10:42:38;;;;;;;;;;;22.10;55.40;;;;;;1543686;76;1779;-61
2023/02/21 10:44:40;;;;;;;;;;;22.10;55.20;;;;;;1538813;76;1332;-61
2023/02/21 10:46:43;;;;;;;;;;;22.10;55.30;;;;;;1541739;76;1960;-62
2023/02/21 10:48:46;;;;;;;;;;;22.10;55.20;;;;;;1539420;76;1732;-61
2023/02/21 10:50:53;;;;;;;;;;;22.10;55.20;;;;;;1541277;76;1310;-64
2023/02/21 10:52:55;;;;;;;;;;;22.10;55.10;;;;;;1543071;76;1113;-61
2023/02/21 10:55:01;;;;;;;;;;;22.10;55.10;;;;;;1548535;76;1424;-62
2023/02/21 10:57:03;;;;;;;;;;;22.10;55.00;;;;;;1540303;76;1086;-62
2023/02/21 10:59:06;;;;;;;;;;;22.10;55.00;;;;;;1538517;76;1462;-61
2023/02/21 11:01:14;;;;;;;;;;;22.10;55.00;;;;;;1539196;76;1553;-62
2023/02/21 11:03:18;;;;;;;;;;;22.10;55.00;;;;;;1538410;76;1099;-61
2023/02/21 11:05:21;;;;;;;;;;;22.10;54.90;;;;;;1547101;76;2023;-62
2023/02/21 11:07:23;;;;;;;;;;;22.10;54.90;;;;;;1543181;76;1939;-62
2023/02/21 11:09:29;;;;;;;;;;;22.10;54.90;;;;;;1537918;76;714;-61
2023/02/21 11:11:38;;;;;;;;;;;22.10;54.80;;;;;;1538304;76;1118;-62
2023/02/21 11:13:40;;;;;;;;;;;22.10;54.70;;;;;;1543680;76;690;-62
2023/02/21 11:15:42;;;;;;;;;;;22.10;54.80;;;;;;1540887;76;1657;-63
2023/02/21 11:17:45;;;;;;;;;;;22.10;54.70;;;;;;1545735;76;854;-61
2023/02/21 11:19:51;;;;;;;;;;;22.10;54.70;;;;;;1539431;76;711;-62
2023/02/21 11:21:56;;;;;;;;;;;22.10;54.70;;;;;;1536984;76;1130;-62
2023/02/21 11:24:03;;;;;;;;;;;22.10;54.70;;;;;;1538012;76;738;-59
2023/02/21 11:26:07;;;;;;;;;;;22.10;54.70;;;;;;1539285;76;1821;-62
2023/02/21 11:28:13;;;;;;;;;;;22.10;54.70;;;;;;1543811;76;1941;-65
2023/02/21 11:30:20;;;;;;;;;;;22.10;54.70;;;;;;1540895;76;1090;-61
2023/02/21 11:32:32;;;;;;;;;;;22.00;54.50;;;;;;1547497;76;701;-61
2023/02/21 11:34:34;;;;;;;;;;;22.00;54.60;;;;;;1540599;76;720;-62
2023/02/21 11:36:40;;;;;;;;;;;22.10;54.60;;;;;;1535474;76;728;-62
2023/02/21 11:38:42;;;;;;;;;;;22.10;54.60;;;;;;1548049;76;661;-62
2023/02/21 11:40:45;;;;;;;;;;;22.10;54.60;;;;;;1539077;76;1149;-62
2023/02/21 11:42:47;;;;;;;;;;;22.10;54.60;;;;;;1541994;76;1529;-63
2023/02/21 11:44:48;;;;;;;;;;;22.10;54.60;;;;;;1539217;76;674;-62
2023/02/21 11:46:52;;;;;;;;;;;22.10;54.50;;;;;;1544209;76;1946;-62
2023/02/21 11:48:55;;;;;;;;;;;22.10;54.50;;;;;;1546073;76;879;-62
2023/02/21 11:50:58;;;;;;;;;;;22.10;54.60;;;;;;1536920;76;1177;-62
2023/02/21 11:53:11;;;;;;;;;;;22.00;54.70;;;;;;1535652;76;738;-62
2023/02/21 11:55:15;;;;;;;;;;;22.00;54.90;;;;;;1548711;76;1718;-61
2023/02/21 11:57:21;;;;;;;;;;;22.00;54.80;;;;;;1543940;76;1206;-61
2023/02/21 11:59:25;;;;;;;;;;;22.00;54.60;;;;;;1540794;76;707;-62
2023/02/21 12:01:31;;;;;;;;;;;22.10;54.60;;;;;;1543400;76;1140;-61
2023/02/21 12:03:41;;;;;;;;;;;22.10;54.50;;;;;;1542827;76;1909;-62
2023/02/21 12:05:50;;;;;;;;;;;22.10;54.70;;;;;;1541727;76;1964;-63
2023/02/21 12:08:06;;;;;;;;;;;22.10;54.70;;;;;;1548192;76;1924;-61
2023/02/21 12:10:09;;;;;;;;;;;22.10;54.80;;;;;;1546834;76;1572;-61
2023/02/21 12:12:13;;;;;;;;;;;22.10;54.90;;;;;;1540686;76;715;-61
2023/02/21 12:14:25;;;;;;;;;;;22.10;54.90;;;;;;1547070;76;707;-62
2023/02/21 12:16:35;;;;;;;;;;;22.00;54.80;;;;;;1545341;76;663;-61
2023/02/21 12:18:48;;;;;;;;;;;22.00;54.70;;;;;;1546855;76;801;-61
2023/02/21 12:21:09;;;;;;;;;;;22.00;54.80;;;;;;1546864;76;1536;-63
2023/02/21 12:23:13;;;;;;;;;;;22.00;54.80;;;;;;1537719;76;2036;-62
2023/02/21 12:25:33;;;;;;;;;;;22.00;54.80;;;;;;1542926;76;1963;-61
2023/02/21 12:27:54;;;;;;;;;;;22.00;54.90;;;;;;1538446;76;1931;-62
2023/02/21 12:30:00;;;;;;;;;;;22.00;54.90;;;;;;1541331;76;757;-62
2023/02/21 12:32:10;;;;;;;;;;;22.00;54.90;;;;;;1544216;76;1767;-61
2023/02/21 12:34:13;;;;;;;;;;;22.00;55.00;;;;;;1537248;76;701;-62
2023/02/21 12:36:35;;;;;;;;;;;22.00;55.00;;;;;;1537993;76;1884;-62
2023/02/21 12:38:48;;;;;;;;;;;22.00;55.00;;;;;;1540603;76;1556;-61
2023/02/21 12:40:51;;;;;;;;;;;22.00;55.00;;;;;;1542889;76;1138;-61
2023/02/21 12:43:12;;;;;;;;;;;22.00;55.00;;;;;;1539017;76;1937;-61
2023/02/21 12:45:15;;;;;;;;;;;21.90;55.10;;;;;;1540469;76;774;-61
2023/02/21 12:47:34;;;;;;;;;;;21.90;55.10;;;;;;1541123;76;1957;-61
2023/02/21 12:49:40;;;;;;;;;;;22.00;55.10;;;;;;1534167;76;718;-61
2023/02/21 12:51:44;;;;;;;;;;;22.00;55.00;;;;;;1542459;76;1896;-62
2023/02/21 12:53:53;;;;;;;;;;;22.00;55.00;;;;;;1536933;76;1821;-62
2023/02/21 12:55:57;;;;;;;;;;;22.00;55.00;;;;;;1522578;76;1667;-61
2023/02/21 12:58:12;;;;;;;;;;;22.00;55.00;;;;;;1538214;76;738;-61
2023/02/21 13:00:21;;;;;;;;;;;22.00;55.00;;;;;;1552274;76;1927;-61
2023/02/21 13:02:30;;;;;;;;;;;21.90;55.00;;;;;;1538192;76;709;-62
2023/02/21 13:04:34;;;;;;;;;;;21.90;55.00;;;;;;1538053;76;754;-62
2023/02/21 13:06:36;;;;;;;;;;;21.90;55.10;;;;;;1543888;76;1355;-62
2023/02/21 13:08:49;;;;;;;;;;;21.90;55.10;;;;;;1533092;76;1956;-62
2023/02/21 13:10:52;;;;;;;;;;;21.90;55.10;;;;;;1541516;76;2028;-61
2023/02/21 13:12:58;;;;;;;;;;;22.00;55.10;;;;;;1539481;76;680;-61
2023/02/21 13:15:04;;;;;;;;;;;22.00;55.10;;;;;;1547926;76;683;-61
2023/02/21 13:17:08;;;;;;;;;;;21.90;55.10;;;;;;1540116;76;1796;-61
2023/02/21 13:19:10;;;;;;;;;;;21.90;55.10;;;;;;1544531;76;705;-61
2023/02/21 13:21:31;;;;;;;;;;;21.90;55.10;;;;;;1532649;76;1621;-61
2023/02/21 13:23:51;;;;;;;;;;;21.90;55.20;;;;;;1538113;76;674;-61
2023/02/21 13:26:06;;;;;;;;;;;21.90;55.20;;;;;;1549960;76;1064;-62
2023/02/21 13:28:12;;;;;;;;;;;21.90;55.20;;;;;;1539701;76;1956;-61
2023/02/21 13:30:19;;;;;;;;;;;21.90;55.20;;;;;;1540328;76;1178;-63
2023/02/21 13:32:21;;;;;;;;;;;21.90;55.20;;;;;;1551989;76;2069;-63
2023/02/21 13:34:23;;;;;;;;;;;21.90;55.20;;;;;;1538186;76;1444;-62
2023/02/21 13:36:29;;;;;;;;;;;21.90;55.30;;;;;;1547558;76;700;-62
2023/02/21 13:38:30;;;;;;;;;;;21.90;55.30;;;;;;1533160;76;706;-61
2023/02/21 13:40:36;;;;;;;;;;;21.90;55.30;;;;;;1539873;76;1079;-61
2023/02/21 13:42:38;;;;;;;;;;;21.90;55.30;;;;;;1539561;76;666;-61
2023/02/21 13:44:41;;;;;;;;;;;21.90;55.30;;;;;;1534642;76;698;-61
2023/02/21 13:46:45;;;;;;;;;;;21.90;55.40;;;;;;1533543;76;677;-62
2023/02/21 13:48:47;;;;;;;;;;;22.00;55.30;;;;;;1550810;76;1919;-61
2023/02/21 13:50:53;;;;;;;;;;;21.90;55.30;;;;;;1527225;77;1170;-61
2023/02/21 13:53:13;;;;;;;;;;;21.90;55.30;;;;;;1542411;76;806;-61
2023/02/21 13:55:25;;;;;;;;;;;22.00;55.30;;;;;;1533639;76;770;-62
2023/02/21 13:57:32;;;;;;;;;;;21.90;55.40;;;;;;1538683;76;1594;-62
2023/02/21 13:59:34;;;;;;;;;;;21.90;55.40;;;;;;1532742;76;728;-63
2023/02/21 14:01:40;;;;;;;;;;;21.90;55.40;;;;;;1532851;76;1186;-61
2023/02/21 14:03:41;;;;;;;;;;;21.90;55.40;;;;;;1539802;76;1595;-62
2023/02/21 14:05:51;;;;;;;;;;;21.90;55.40;;;;;;1534662;76;693;-63
2023/02/21 14:08:02;;;;;;;;;;;21.90;55.40;;;;;;1542664;76;1925;-62
2023/02/21 14:10:04;;;;;;;;;;;21.90;55.40;;;;;;1535300;76;1154;-63
2023/02/21 14:12:06;;;;;;;;;;;21.90;55.40;;;;;;1533840;76;751;-63
2023/02/21 14:14:26;;;;;;;;;;;21.90;55.30;;;;;;1534538;76;674;-63
2023/02/21 14:16:32;;;;;;;;;;;21.80;55.20;;;;;;1541964;76;649;-62
2023/02/21 14:18:53;;;;;;;;;;;21.90;55.30;;;;;;1537599;76;703;-63
2023/02/21 14:20:55;;;;;;;;;;;21.90;55.30;;;;;;1547606;76;1136;-62
2023/02/21 14:22:57;;;;;;;;;;;21.90;55.30;;;;;;1539379;76;748;-62
2023/02/21 14:25:03;;;;;;;;;;;21.80;55.20;;;;;;1549407;76;676;-62
2023/02/21 14:27:07;;;;;;;;;;;21.90;55.30;;;;;;1549297;76;1772;-63
2023/02/21 14:29:10;;;;;;;;;;;21.90;55.30;;;;;;1528972;76;1952;-62
2023/02/21 14:31:12;;;;;;;;;;;21.90;55.40;;;;;;1541847;76;1362;-62